Hutchinson, MN

7:44 PM CST on February 09, 2016 (GMT -0600)
Hutchinson Municipal-Butler

Weather History for KHCD - January, 2014

Change the Weather History Date:

Friday, January 24, 2014

  Actual Average Record
Temperature  
Mean Temperature 20 °F -  
Max Temperature 35 °F 25 °F 61 °F (1981)
Min Temperature 5 °F 4 °F -24 °F (1982)
Degree Days  
Heating Degree Days 45    
Moisture  
Dew Point 20 °F    
Average Humidity 77    
Maximum Humidity 97    
Minimum Humidity 60    
Precipitation  
Precipitation 0.00 in - - ()
Sea Level Pressure  
Sea Level Pressure 29.69 in    
Wind  
Wind Speed 15 mph (WSW)    
Max Wind Speed 26 mph    
Max Gust Speed 34 mph    
Visibility 10 miles    
Events Rain , Snow    
Averages and records for this station are not official NWS values.
T = Trace of Precipitation, MM = Missing Value Source: NWS Daily Summary

Daily Weather History Graph

Daily Weather History Graph

Search for Another Location

Airport or City:

Trip Planner

Search our weather history database for the weather conditions in past years. The results will help you decide how hot, cold, wet, or windy it might be!

Date:

Astronomy

Jan. 24, 2014 Rise Set
Actual Time 7:45 AM CST 5:14 PM CST
Civil Twilight 7:13 AM CST 5:46 PM CST
Nautical Twilight 6:37 AM CST 6:22 PM CST
Astronomical Twilight 6:02 AM CST 6:56 PM CST
Moon 1:09 AM CST (1/24) 11:36 AM CST (1/24)
Length of Visible Light 10h 33m
Length of Day
9h 29m
Last Quarter, 44% of the Moon is Illuminated
Jan 24
Last Quarter
Jan 30
New
Feb 6
First Quarter
Feb 14
Full
Feb 22
Last Quarter

Hourly Weather History & Observations

Time (CST) Temp. Windchill Dew Point Humidity Pressure Visibility Wind Dir Wind Speed Gust Speed Precip Events Conditions
12:13 AM 5.7 °F -10.7 °F -3.1 °F 67% 30.09 in 10.0 mi South 12.7 mph - N/A   Scattered Clouds
12:34 AM 7.2 °F -8.9 °F -2.6 °F 64% 30.07 in 10.0 mi South 12.7 mph 17.3 mph N/A   Clear
12:53 AM 9.0 °F -6.6 °F -2.0 °F 61% 30.04 in 10.0 mi South 12.7 mph 18.4 mph N/A   Clear
1:14 AM 10.0 °F -5.2 °F -1.1 °F 61% 30.01 in 10.0 mi SSW 12.7 mph 19.6 mph N/A   Mostly Cloudy
1:33 AM 10.8 °F -4.3 °F -0.4 °F 61% 29.99 in 10.0 mi South 12.7 mph 18.4 mph N/A   Overcast
1:54 AM 11.5 °F -4.1 °F 0.5 °F 61% 29.97 in 10.0 mi SSW 13.8 mph 18.4 mph N/A   Overcast
2:13 AM 13.1 °F -1.4 °F 1.6 °F 60% 29.95 in 10.0 mi SSW 12.7 mph 18.4 mph N/A   Overcast
2:33 AM 14.0 °F -2.0 °F 3.0 °F 62% 29.93 in 10.0 mi SSW 16.1 mph 23.0 mph N/A   Scattered Clouds
2:53 AM 14.7 °F -1.1 °F 3.6 °F 61% 29.90 in 10.0 mi SSW 16.1 mph 25.3 mph N/A   Scattered Clouds
3:13 AM 14.9 °F -1.3 °F 3.9 °F 62% 29.89 in 10.0 mi SSW 17.3 mph 24.2 mph N/A   Mostly Cloudy
3:33 AM 15.6 °F -0.4 °F 5.0 °F 63% 29.87 in 10.0 mi SW 17.3 mph 23.0 mph N/A   Overcast
3:53 AM 16.0 °F 1.1 °F 5.7 °F 64% 29.86 in 10.0 mi SW 15.0 mph 24.2 mph N/A   Overcast
4:13 AM 17.1 °F 4.3 °F 6.8 °F 64% 29.87 in 10.0 mi SW 11.5 mph - N/A   Overcast
4:33 AM 17.6 °F 5.0 °F 9.1 °F 69% 29.84 in 10.0 mi SW 11.5 mph 16.1 mph N/A   Overcast
4:54 AM 18.5 °F 5.5 °F 9.5 °F 68% 29.82 in 10.0 mi SW 12.7 mph 17.3 mph N/A   Overcast
5:13 AM 19.6 °F 6.8 °F 10.2 °F 67% 29.81 in 10.0 mi SW 12.7 mph 18.4 mph N/A   Overcast
5:34 AM 20.3 °F 8.3 °F 10.4 °F 66% 29.80 in 10.0 mi SW 11.5 mph - N/A   Overcast
5:53 AM 21.2 °F 9.5 °F 11.3 °F 66% 29.79 in 10.0 mi SW 11.5 mph - N/A   Overcast
6:14 AM 21.9 °F 9.8 °F 11.8 °F 65% 29.79 in 10.0 mi SW 12.7 mph 18.4 mph N/A   Overcast
6:33 AM 21.6 °F 10.6 °F 12.7 °F 69% 29.77 in 10.0 mi SW 10.4 mph 17.3 mph N/A   Overcast
6:54 AM 21.6 °F 10.6 °F 13.1 °F 70% 29.75 in 10.0 mi SW 10.4 mph - N/A   Overcast
7:13 AM 21.9 °F 10.4 °F 13.3 °F 69% 29.76 in 10.0 mi SW 11.5 mph - N/A   Overcast
7:33 AM 22.1 °F 10.6 °F 14.0 °F 71% 29.74 in 10.0 mi SW 11.5 mph - N/A   Overcast
7:54 AM 22.6 °F 11.9 °F 14.5 °F 71% 29.74 in 10.0 mi WSW 10.4 mph - N/A   Overcast
8:14 AM 23.9 °F 12.9 °F 15.8 °F 71% 29.73 in 10.0 mi WSW 11.5 mph - N/A   Overcast
8:33 AM 24.8 °F 11.9 °F 17.2 °F 73% 29.73 in 10.0 mi WSW 16.1 mph - N/A   Overcast
8:54 AM 24.8 °F 15.3 °F 17.6 °F 74% 29.71 in 10.0 mi WSW 9.2 mph - N/A   Overcast
9:13 AM 25.3 °F 14.7 °F 18.5 °F 75% 29.71 in 10.0 mi WSW 11.5 mph - N/A   Overcast
9:33 AM 26.2 °F 15.8 °F 19.8 °F 76% 29.71 in 10.0 mi WSW 11.5 mph - N/A   Overcast
9:53 AM 27.1 °F 17.5 °F 21.2 °F 78% 29.70 in 10.0 mi WSW 10.4 mph - N/A   Overcast
10:13 AM 28.8 °F 17.5 °F 23.0 °F 79% 29.70 in 10.0 mi West 15.0 mph - N/A   Overcast
10:34 AM 29.1 °F 17.5 °F 23.5 °F 80% 29.68 in 10.0 mi WSW 16.1 mph - N/A   Overcast
10:53 AM 29.8 °F 19.3 °F 24.3 °F 80% 29.68 in 10.0 mi WSW 13.8 mph - N/A   Overcast
11:13 AM 30.2 °F 18.9 °F 25.3 °F 82% 29.67 in 10.0 mi West 16.1 mph - N/A   Mostly Cloudy
11:33 AM 30.2 °F 17.8 °F 25.5 °F 83% 29.65 in 10.0 mi West 19.6 mph - N/A   Scattered Clouds
11:54 AM 30.6 °F 18.6 °F 25.9 °F 83% 29.64 in 10.0 mi West 18.4 mph - N/A   Clear
12:14 PM 30.6 °F 19.0 °F 26.2 °F 84% 29.62 in 10.0 mi West 17.3 mph 24.2 mph N/A   Mostly Cloudy
12:33 PM 30.9 °F 19.1 °F 26.6 °F 84% 29.62 in 10.0 mi West 18.4 mph - N/A   Overcast
12:53 PM 31.1 °F 18.3 °F 27.1 °F 85% 29.60 in 10.0 mi West 21.9 mph - N/A   Mostly Cloudy
1:13 PM 31.6 °F 20.7 °F 27.5 °F 85% 29.58 in 10.0 mi West 16.1 mph - N/A   Mostly Cloudy
1:33 PM 31.8 °F 20.2 °F 27.7 °F 85% 29.56 in 10.0 mi WSW 18.4 mph 25.3 mph N/A   Overcast
1:53 PM 32.0 °F 20.1 °F 28.2 °F 86% 29.56 in 10.0 mi West 19.6 mph 24.2 mph N/A   Overcast
2:14 PM 32.7 °F 21.4 °F 28.9 °F 86% 29.55 in 10.0 mi West 18.4 mph - N/A   Overcast
2:33 PM 33.3 °F 22.5 °F 29.3 °F 85% 29.54 in 10.0 mi West 17.3 mph - N/A   Overcast
2:53 PM 33.8 °F 23.5 °F 30.0 °F 86% 29.53 in 10.0 mi West 16.1 mph - N/A   Overcast
3:13 PM 34.2 °F 24.4 °F 30.2 °F 85% 29.53 in 10.0 mi West 15.0 mph - N/A   Overcast
3:34 PM 34.2 °F 24.4 °F 30.7 °F 87% 29.52 in 10.0 mi West 15.0 mph 21.9 mph N/A   Overcast
3:54 PM 34.3 °F 24.2 °F 31.1 °F 88% - 10.0 mi West 16.1 mph - N/A   Overcast
4:13 PM 34.2 °F 23.6 °F 31.6 °F 90% 29.51 in 10.0 mi West 17.3 mph - N/A Rain Light Rain
4:33 PM 34.0 °F 23.0 °F 32.0 °F 92% 29.50 in 2.5 mi West 18.4 mph 24.2 mph N/A Snow Light Snow
4:54 PM 33.8 °F 23.2 °F 32.4 °F 94% 29.50 in 5.0 mi West 17.3 mph - N/A Snow Light Snow
5:12 PM 33.8 °F 23.2 °F 32.7 °F 96% 29.50 in 3.0 mi West 17.3 mph - N/A Snow Light Snow
5:33 PM 33.8 °F 23.5 °F 33.1 °F 97% 29.50 in 4.0 mi West 16.1 mph - N/A Snow Light Snow
5:54 PM 34.0 °F 23.8 °F 33.3 °F 97% - 10.0 mi West 16.1 mph - N/A   Overcast
6:13 PM 34.7 °F 24.7 °F 33.3 °F 94% 29.51 in 10.0 mi WNW 16.1 mph 23.0 mph N/A   Overcast
6:33 PM 34.7 °F 25.1 °F 33.1 °F 94% 29.51 in 10.0 mi WNW 15.0 mph 23.0 mph N/A   Overcast
6:53 PM 34.7 °F 25.1 °F 32.9 °F 93% 29.52 in 10.0 mi WNW 15.0 mph 23.0 mph N/A   Overcast
7:13 PM 35.2 °F 24.4 °F 32.0 °F 88% 29.52 in 10.0 mi NW 19.6 mph 25.3 mph N/A   Overcast
7:33 PM 35.2 °F 24.7 °F 31.8 °F 87% 29.53 in 10.0 mi NW 18.4 mph 27.6 mph N/A   Overcast
7:53 PM 34.7 °F 23.4 °F 31.6 °F 89% 29.54 in 10.0 mi NW 20.7 mph 29.9 mph N/A Snow Light Snow
8:13 PM 33.8 °F 21.9 °F 29.1 °F 83% 29.53 in 10.0 mi NW 21.9 mph 27.6 mph N/A   Mostly Cloudy
8:33 PM 32.9 °F 20.7 °F 27.3 °F 80% 29.55 in 10.0 mi NW 21.9 mph 27.6 mph N/A   Overcast
8:53 PM 32.0 °F 20.8 °F 25.7 °F 78% 29.55 in 10.0 mi NW 17.3 mph 24.2 mph N/A   Mostly Cloudy
9:14 PM 32.4 °F 22.5 °F 25.7 °F 76% 29.56 in 10.0 mi NW 13.8 mph - N/A   Mostly Cloudy
9:33 PM 32.4 °F 22.1 °F 25.7 °F 76% 29.56 in 10.0 mi WNW 15.0 mph 23.0 mph N/A   Overcast
9:53 PM 32.4 °F 18.9 °F 26.1 °F 78% 29.57 in 10.0 mi NW 26.5 mph 32.2 mph N/A   Overcast
10:13 PM 31.1 °F 17.4 °F 26.6 °F 83% 29.57 in 3.0 mi NW 25.3 mph 32.2 mph N/A Snow Light Snow
10:33 PM 30.9 °F 17.8 °F 22.3 °F 70% 29.58 in 7.0 mi NW 23.0 mph 34.5 mph N/A   Overcast
10:53 PM 30.7 °F 17.2 °F 21.6 °F 69% 29.59 in 10.0 mi WNW 24.2 mph 29.9 mph N/A   Overcast
11:13 PM 29.7 °F 16.7 °F 19.2 °F 65% 29.59 in 10.0 mi NW 20.7 mph 32.2 mph N/A   Overcast
11:33 PM 28.4 °F 14.1 °F 17.6 °F 64% 29.61 in 10.0 mi NW 24.2 mph 31.1 mph N/A   Overcast
11:52 PM 27.0 °F 12.2 °F 17.2 °F 67% 29.62 in 10.0 mi NW 24.2 mph 32.2 mph N/A   Overcast